Lewiston, NH

1:53 PM EST on December 05, 2016 (GMT -0500)
Montshire Museum | | Change Station

Elev 436 ft 43.70 °N, 72.31 °W | Updated 10 days ago

Light Snow
Light Snow Mist
33.6 °F
Feels Like 33.6 °F
N
0.0
Wind Variable Wind from NNW
Gusts 0.0 mph

Today
High -- | Low -- °F
--% Chance of Precip.
Yesterday
High -- | Low -- °F
Precip. -- in
Pressure 29.87 in
Visibility 3.0 miles
Clouds Overcast 2300 ft
Dew Point 32.8 °F
Humidity 97%
Rainfall in
Snow Depth Not available.
7:07 AM 4:12 PM
Waxing Crescent, 34% visible
SPECI KLEB 051840Z 18004KT 3SM -SN BR OVC023 M01/M02 A2987 RMK AO2 P0001 T10111022
Pressure 29.87 in
Visibility 3.0 miles
Clouds Overcast 2300 ft
Dew Point 32.8 °F
Humidity 97%
Rainfall in
Snow Depth Not available.
7:07 AM 4:12 PM
Waxing Crescent, 34% visible
SPECI KLEB 051840Z 18004KT 3SM -SN BR OVC023 M01/M02 A2987 RMK AO2 P0001 T10111022

10-Day Weather Forecast

Almanac

Astronomy

Dec. 05, 2016 Rise Set
Actual Time
Civil Twilight
Nautical Twilight
Astronomical Twilight
Moon
Length of Visible Light
Length of Day
Tomorrow will be .
, % of the Moon is Illuminated

Today's Extremes

State Highs State Lows

Community

WunderPhotos

Upload Photos

1,955,851 photos uploaded!

WunderBlog® & News

Nearby

Air Quality

  Air Quality AQ Index Pollutant
Not available.

Snow Depth

Station Depth Elevation

Earthquake Activity

City Distance Mag. Time & Date
Minimum magnitude displayed is 2.5.

Coastal Water Temperatures

Place Temperature

Stations

Nearby Weather Stations

Station Location Temp. Windchill Dew Point Humidity Wind Precip. Elev Updated Type
                   

Watches & Warnings

There are currently no watches in effect.